This is the latest recevied weather packets stored in our database for station/object K7JGC-9. If no packets are shown the sender has not sent any weather packets the latest 10 day(s).
| Time | Temp. | Humidity | Pressure | Rain* | Wind** | Luminosity | Snow |
|---|---|---|---|---|---|---|---|
| 1777491592 | 17.22° C | 67% | 1023.7 hPa | 0 mm | - | 714 W/m² | - |
| 1777489790 | 19.44° C | 59% | 1023.8 hPa | 0 mm | - | 133 W/m² | - |
| 1777487986 | 15° C | 77% | 1024.2 hPa | 0 mm | - | 629 W/m² | - |
| 1777486185 | 11.11° C | 87% | 1024.6 hPa | 0 mm | - | 52 W/m² | - |
| 1777484382 | 10° C | 89% | 1025 hPa | 0 mm | - | 47 W/m² | - |
| 1777482582 | 9.44° C | 90% | 1025.1 hPa | 0 mm | - | 42 W/m² | - |
| 1777480782 | 9.44° C | 86% | 1025.2 hPa | 3.05 mm | - | 33 W/m² | - |
| 1777478980 | 8.89° C | 81% | 1025.5 hPa | 0 mm | - | 37 W/m² | - |
| 1777477177 | 8.33° C | 83% | 1025.8 hPa | 0 mm | - | 30 W/m² | - |
| 1777475373 | 7.22° C | 89% | 1025.7 hPa | 0 mm | - | 28 W/m² | - |
| 1777473569 | 6.11° C | 92% | 1025.7 hPa | 0 mm | - | 22 W/m² | - |
| 1777471764 | 5° C | 94% | 1025.7 hPa | 0 mm | - | 18 W/m² | - |
| 1777469961 | 4.44° C | 93% | 1025.6 hPa | 0 mm | - | 12 W/m² | - |
| 1777468161 | 4.44° C | 92% | 1025.4 hPa | 0 mm | - | 3 W/m² | - |
| 1777466355 | 5° C | 91% | 1025.2 hPa | 0 mm | - | 0 W/m² | - |
| 1777464551 | 5° C | 90% | 1025.1 hPa | 0 mm | - | 0 W/m² | - |
| 1777462748 | 5.56° C | 89% | 1025.2 hPa | 0 mm | - | 0 W/m² | - |
| 1777460949 | 6.11° C | 87% | 1025.1 hPa | 0 mm | - | 0 W/m² | - |
| 1777459146 | 6.11° C | 86% | 1024.9 hPa | 0 mm | - | 0 W/m² | - |
| 1777457346 | 6.67° C | 84% | 1024.7 hPa | 0 mm | - | 0 W/m² | - |
| 1777455545 | 7.78° C | 82% | 1025 hPa | 0 mm | - | 0 W/m² | - |
| 1777453742 | 8.33° C | 79% | 1024.9 hPa | 0 mm | - | 0 W/m² | - |
| 1777451937 | 8.89° C | 78% | 1025 hPa | 0 mm | - | 0 W/m² | - |
| 1777450137 | 8.89° C | 78% | 1025.1 hPa | 0 mm | - | 0 W/m² | - |
| 1777448332 | 8.89° C | 78% | 1025.1 hPa | 0 mm | - | 0 W/m² | - |
* Rain latest hour (hover to see other rain measurements)
** Current wind speed in m/s (hover to see current wind gust speed)